sensor_id;sensor_type;location;lat;lon;timestamp;temperature;humidity
56300;DHT22;42209;6.376;-10.782;2023-02-20T00:01:45;28.10;52.70
56300;DHT22;42209;6.376;-10.782;2023-02-20T00:04:13;28.20;52.90
56300;DHT22;42209;6.376;-10.782;2023-02-20T00:06:45;28.10;52.70
56300;DHT22;42209;6.376;-10.782;2023-02-20T00:09:15;28.10;53.10
56300;DHT22;42209;6.376;-10.782;2023-02-20T00:11:43;28.10;53.60
56300;DHT22;42209;6.376;-10.782;2023-02-20T00:14:12;28.10;52.90
56300;DHT22;42209;6.376;-10.782;2023-02-20T00:16:40;28.10;53.10
56300;DHT22;42209;6.376;-10.782;2023-02-20T00:19:11;28.10;52.80
56300;DHT22;42209;6.376;-10.782;2023-02-20T00:21:46;28.10;53.70
56300;DHT22;42209;6.376;-10.782;2023-02-20T00:24:15;28.10;53.20
56300;DHT22;42209;6.376;-10.782;2023-02-20T00:26:49;28.10;53.00
56300;DHT22;42209;6.376;-10.782;2023-02-20T00:29:20;28.10;52.40
56300;DHT22;42209;6.376;-10.782;2023-02-20T00:31:56;28.10;53.20
56300;DHT22;42209;6.376;-10.782;2023-02-20T00:34:28;28.10;53.30
56300;DHT22;42209;6.376;-10.782;2023-02-20T00:36:56;28.10;53.20
56300;DHT22;42209;6.376;-10.782;2023-02-20T00:39:24;28.10;53.30
56300;DHT22;42209;6.376;-10.782;2023-02-20T00:41:53;28.10;53.50
56300;DHT22;42209;6.376;-10.782;2023-02-20T00:44:24;28.20;53.40
56300;DHT22;42209;6.376;-10.782;2023-02-20T00:46:52;28.10;53.00
56300;DHT22;42209;6.376;-10.782;2023-02-20T00:49:21;28.10;52.90
56300;DHT22;42209;6.376;-10.782;2023-02-20T00:51:49;28.10;53.30
56300;DHT22;42209;6.376;-10.782;2023-02-20T00:54:17;28.10;53.40
56300;DHT22;42209;6.376;-10.782;2023-02-20T00:56:46;28.10;53.30
56300;DHT22;42209;6.376;-10.782;2023-02-20T00:59:14;28.10;53.20
56300;DHT22;42209;6.376;-10.782;2023-02-20T01:01:42;28.10;52.80
56300;DHT22;42209;6.376;-10.782;2023-02-20T01:04:11;28.10;53.20
56300;DHT22;42209;6.376;-10.782;2023-02-20T01:06:41;28.10;53.10
56300;DHT22;42209;6.376;-10.782;2023-02-20T01:09:11;28.10;53.40
56300;DHT22;42209;6.376;-10.782;2023-02-20T01:11:42;28.10;53.40
56300;DHT22;42209;6.376;-10.782;2023-02-20T01:14:12;28.10;52.90
56300;DHT22;42209;6.376;-10.782;2023-02-20T01:16:48;28.20;53.60
56300;DHT22;42209;6.376;-10.782;2023-02-20T01:19:21;28.20;52.90
56300;DHT22;42209;6.376;-10.782;2023-02-20T01:21:52;28.10;53.20
56300;DHT22;42209;6.376;-10.782;2023-02-20T01:24:21;28.10;53.30
56300;DHT22;42209;6.376;-10.782;2023-02-20T01:26:51;28.10;52.90
56300;DHT22;42209;6.376;-10.782;2023-02-20T01:29:19;28.10;52.90
56300;DHT22;42209;6.376;-10.782;2023-02-20T01:31:49;28.10;53.50
56300;DHT22;42209;6.376;-10.782;2023-02-20T01:34:19;28.10;52.90
56300;DHT22;42209;6.376;-10.782;2023-02-20T01:36:53;28.10;53.30
56300;DHT22;42209;6.376;-10.782;2023-02-20T01:39:26;28.10;53.60
56300;DHT22;42209;6.376;-10.782;2023-02-20T01:42:01;28.10;53.80
56300;DHT22;42209;6.376;-10.782;2023-02-20T01:44:36;28.20;53.40
56300;DHT22;42209;6.376;-10.782;2023-02-20T01:47:09;28.10;53.40
56300;DHT22;42209;6.376;-10.782;2023-02-20T01:55:20;28.10;53.50
56300;DHT22;42209;6.376;-10.782;2023-02-20T01:57:56;28.10;53.60
56300;DHT22;42209;6.376;-10.782;2023-02-20T02:00:26;28.10;52.90
56300;DHT22;42209;6.376;-10.782;2023-02-20T02:03:19;28.10;54.10
56300;DHT22;42209;6.376;-10.782;2023-02-20T02:05:53;28.10;53.60
56300;DHT22;42209;6.376;-10.782;2023-02-20T02:08:23;28.10;53.70
56300;DHT22;42209;6.376;-10.782;2023-02-20T02:11:09;28.10;53.90
56300;DHT22;42209;6.376;-10.782;2023-02-20T02:13:38;28.10;53.80
56300;DHT22;42209;6.376;-10.782;2023-02-20T02:16:28;28.10;54.60
56300;DHT22;42209;6.376;-10.782;2023-02-20T02:41:56;28.10;54.20
56300;DHT22;42209;6.376;-10.782;2023-02-20T02:44:50;28.10;54.90
56300;DHT22;42209;6.376;-10.782;2023-02-20T02:50:09;28.10;54.30
56300;DHT22;42209;6.376;-10.782;2023-02-20T02:52:40;28.10;54.40
56300;DHT22;42209;6.376;-10.782;2023-02-20T02:55:09;28.10;54.80
56300;DHT22;42209;6.376;-10.782;2023-02-20T02:57:37;28.10;54.60
56300;DHT22;42209;6.376;-10.782;2023-02-20T03:00:10;28.10;54.80
56300;DHT22;42209;6.376;-10.782;2023-02-20T03:02:57;28.10;54.60
56300;DHT22;42209;6.376;-10.782;2023-02-20T03:11:37;28.00;54.60
56300;DHT22;42209;6.376;-10.782;2023-02-20T03:14:27;28.10;55.10
56300;DHT22;42209;6.376;-10.782;2023-02-20T03:19:51;28.10;55.20
56300;DHT22;42209;6.376;-10.782;2023-02-20T03:22:48;28.10;55.40
56300;DHT22;42209;6.376;-10.782;2023-02-20T03:25:35;28.10;55.50
56300;DHT22;42209;6.376;-10.782;2023-02-20T03:28:07;28.10;55.70
56300;DHT22;42209;6.376;-10.782;2023-02-20T03:30:42;28.10;55.30
56300;DHT22;42209;6.376;-10.782;2023-02-20T03:33:17;28.00;55.30
56300;DHT22;42209;6.376;-10.782;2023-02-20T03:35:47;28.10;55.50
56300;DHT22;42209;6.376;-10.782;2023-02-20T03:38:16;28.10;55.70
56300;DHT22;42209;6.376;-10.782;2023-02-20T03:40:49;28.10;55.80
56300;DHT22;42209;6.376;-10.782;2023-02-20T03:43:19;28.10;55.90
56300;DHT22;42209;6.376;-10.782;2023-02-20T03:46:04;28.10;55.40
56300;DHT22;42209;6.376;-10.782;2023-02-20T03:51:47;28.10;55.40
56300;DHT22;42209;6.376;-10.782;2023-02-20T03:54:28;28.10;55.70
56300;DHT22;42209;6.376;-10.782;2023-02-20T03:57:06;28.10;56.10
56300;DHT22;42209;6.376;-10.782;2023-02-20T03:59:45;28.00;55.80
56300;DHT22;42209;6.376;-10.782;2023-02-20T04:02:21;28.00;55.70
56300;DHT22;42209;6.376;-10.782;2023-02-20T04:04:53;28.00;55.60
56300;DHT22;42209;6.376;-10.782;2023-02-20T04:07:34;28.00;56.30
56300;DHT22;42209;6.376;-10.782;2023-02-20T04:10:06;28.00;55.70
56300;DHT22;42209;6.376;-10.782;2023-02-20T04:12:42;28.00;55.70
56300;DHT22;42209;6.376;-10.782;2023-02-20T04:15:12;28.00;56.00
56300;DHT22;42209;6.376;-10.782;2023-02-20T04:18:05;28.00;56.30
56300;DHT22;42209;6.376;-10.782;2023-02-20T04:20:34;28.10;56.70
56300;DHT22;42209;6.376;-10.782;2023-02-20T04:23:18;28.00;57.80
56300;DHT22;42209;6.376;-10.782;2023-02-20T04:28:22;28.10;57.30
56300;DHT22;42209;6.376;-10.782;2023-02-20T04:30:58;28.00;57.30
56300;DHT22;42209;6.376;-10.782;2023-02-20T04:33:27;28.00;57.30
56300;DHT22;42209;6.376;-10.782;2023-02-20T04:36:01;28.10;57.60
56300;DHT22;42209;6.376;-10.782;2023-02-20T04:38:30;28.00;57.50
56300;DHT22;42209;6.376;-10.782;2023-02-20T04:40:59;28.00;57.00
56300;DHT22;42209;6.376;-10.782;2023-02-20T04:43:29;28.10;57.00
56300;DHT22;42209;6.376;-10.782;2023-02-20T04:45:58;28.00;56.80
56300;DHT22;42209;6.376;-10.782;2023-02-20T04:48:27;28.10;57.20
56300;DHT22;42209;6.376;-10.782;2023-02-20T04:50:55;28.00;57.50
56300;DHT22;42209;6.376;-10.782;2023-02-20T04:53:23;28.00;57.10
56300;DHT22;42209;6.376;-10.782;2023-02-20T04:55:51;28.00;56.90
56300;DHT22;42209;6.376;-10.782;2023-02-20T04:58:24;28.00;56.70
56300;DHT22;42209;6.376;-10.782;2023-02-20T05:01:05;28.00;57.20
56300;DHT22;42209;6.376;-10.782;2023-02-20T05:03:33;28.00;57.30
56300;DHT22;42209;6.376;-10.782;2023-02-20T05:06:01;28.00;57.20
56300;DHT22;42209;6.376;-10.782;2023-02-20T05:08:30;28.00;56.90
56300;DHT22;42209;6.376;-10.782;2023-02-20T05:11:10;28.00;56.90
56300;DHT22;42209;6.376;-10.782;2023-02-20T05:13:43;28.00;56.80
56300;DHT22;42209;6.376;-10.782;2023-02-20T05:16:11;28.00;57.20
56300;DHT22;42209;6.376;-10.782;2023-02-20T05:18:43;28.00;57.80
56300;DHT22;42209;6.376;-10.782;2023-02-20T05:21:14;28.00;56.60
56300;DHT22;42209;6.376;-10.782;2023-02-20T05:23:45;28.00;57.20
56300;DHT22;42209;6.376;-10.782;2023-02-20T05:26:18;28.00;57.10
56300;DHT22;42209;6.376;-10.782;2023-02-20T05:28:47;28.00;57.90
56300;DHT22;42209;6.376;-10.782;2023-02-20T05:31:18;28.00;58.00
56300;DHT22;42209;6.376;-10.782;2023-02-20T05:33:50;28.00;57.80
56300;DHT22;42209;6.376;-10.782;2023-02-20T05:36:18;28.00;57.60
56300;DHT22;42209;6.376;-10.782;2023-02-20T05:38:49;28.00;57.30
56300;DHT22;42209;6.376;-10.782;2023-02-20T05:41:21;28.00;58.20
56300;DHT22;42209;6.376;-10.782;2023-02-20T05:43:49;28.00;58.60
56300;DHT22;42209;6.376;-10.782;2023-02-20T05:46:17;28.00;58.40
56300;DHT22;42209;6.376;-10.782;2023-02-20T05:48:49;28.00;58.50
56300;DHT22;42209;6.376;-10.782;2023-02-20T05:51:21;28.00;58.30
56300;DHT22;42209;6.376;-10.782;2023-02-20T05:53:50;28.00;58.20
56300;DHT22;42209;6.376;-10.782;2023-02-20T05:56:19;28.00;58.10
56300;DHT22;42209;6.376;-10.782;2023-02-20T05:58:48;28.00;58.40
56300;DHT22;42209;6.376;-10.782;2023-02-20T06:01:25;27.90;58.20
56300;DHT22;42209;6.376;-10.782;2023-02-20T06:03:54;28.00;57.80
56300;DHT22;42209;6.376;-10.782;2023-02-20T06:06:22;28.00;57.80
56300;DHT22;42209;6.376;-10.782;2023-02-20T06:08:50;28.00;58.40
56300;DHT22;42209;6.376;-10.782;2023-02-20T06:11:18;27.90;58.30
56300;DHT22;42209;6.376;-10.782;2023-02-20T06:13:47;28.00;58.60
56300;DHT22;42209;6.376;-10.782;2023-02-20T06:16:20;28.00;58.40
56300;DHT22;42209;6.376;-10.782;2023-02-20T06:18:48;27.90;58.30
56300;DHT22;42209;6.376;-10.782;2023-02-20T06:21:17;27.90;58.70
56300;DHT22;42209;6.376;-10.782;2023-02-20T06:23:45;27.90;59.60
56300;DHT22;42209;6.376;-10.782;2023-02-20T06:26:14;27.90;59.50
56300;DHT22;42209;6.376;-10.782;2023-02-20T06:28:43;27.90;58.80
56300;DHT22;42209;6.376;-10.782;2023-02-20T06:31:11;27.90;59.00
56300;DHT22;42209;6.376;-10.782;2023-02-20T06:33:39;27.90;58.40
56300;DHT22;42209;6.376;-10.782;2023-02-20T06:36:22;27.90;58.10
56300;DHT22;42209;6.376;-10.782;2023-02-20T06:38:57;27.90;58.40
56300;DHT22;42209;6.376;-10.782;2023-02-20T06:41:30;27.90;58.60
56300;DHT22;42209;6.376;-10.782;2023-02-20T06:44:02;27.90;58.70
56300;DHT22;42209;6.376;-10.782;2023-02-20T06:46:42;27.90;58.30
56300;DHT22;42209;6.376;-10.782;2023-02-20T06:49:10;27.90;58.00
56300;DHT22;42209;6.376;-10.782;2023-02-20T06:51:39;27.90;58.40
56300;DHT22;42209;6.376;-10.782;2023-02-20T06:54:10;27.90;58.60
56300;DHT22;42209;6.376;-10.782;2023-02-20T06:56:39;27.90;58.20
56300;DHT22;42209;6.376;-10.782;2023-02-20T06:59:21;27.90;58.10
56300;DHT22;42209;6.376;-10.782;2023-02-20T07:01:50;27.90;57.60
56300;DHT22;42209;6.376;-10.782;2023-02-20T07:04:21;27.90;58.70
56300;DHT22;42209;6.376;-10.782;2023-02-20T07:06:51;27.90;59.00
56300;DHT22;42209;6.376;-10.782;2023-02-20T07:09:19;27.90;58.10
56300;DHT22;42209;6.376;-10.782;2023-02-20T07:11:56;27.90;58.20
56300;DHT22;42209;6.376;-10.782;2023-02-20T07:14:25;27.90;58.70
56300;DHT22;42209;6.376;-10.782;2023-02-20T07:17:13;27.90;59.00
56300;DHT22;42209;6.376;-10.782;2023-02-20T07:19:45;27.90;58.70
56300;DHT22;42209;6.376;-10.782;2023-02-20T07:22:13;27.90;59.40
56300;DHT22;42209;6.376;-10.782;2023-02-20T07:24:52;27.90;58.60
56300;DHT22;42209;6.376;-10.782;2023-02-20T07:27:23;27.90;58.10
56300;DHT22;42209;6.376;-10.782;2023-02-20T07:29:52;27.90;58.90
56300;DHT22;42209;6.376;-10.782;2023-02-20T07:32:21;27.90;58.60
56300;DHT22;42209;6.376;-10.782;2023-02-20T07:34:49;27.90;58.20
56300;DHT22;42209;6.376;-10.782;2023-02-20T07:37:33;27.90;58.70
56300;DHT22;42209;6.376;-10.782;2023-02-20T07:40:01;27.90;58.90
56300;DHT22;42209;6.376;-10.782;2023-02-20T07:42:29;27.90;58.30
56300;DHT22;42209;6.376;-10.782;2023-02-20T07:45:10;27.80;58.50
56300;DHT22;42209;6.376;-10.782;2023-02-20T07:47:38;27.90;57.80
56300;DHT22;42209;6.376;-10.782;2023-02-20T07:50:29;27.90;57.80
56300;DHT22;42209;6.376;-10.782;2023-02-20T07:52:57;27.90;58.60
56300;DHT22;42209;6.376;-10.782;2023-02-20T07:55:25;27.80;58.80
56300;DHT22;42209;6.376;-10.782;2023-02-20T07:57:53;27.90;58.80
56300;DHT22;42209;6.376;-10.782;2023-02-20T08:00:22;27.80;58.00
56300;DHT22;42209;6.376;-10.782;2023-02-20T08:02:51;27.90;57.40
56300;DHT22;42209;6.376;-10.782;2023-02-20T08:05:19;27.80;58.10
56300;DHT22;42209;6.376;-10.782;2023-02-20T08:07:49;27.80;57.70
56300;DHT22;42209;6.376;-10.782;2023-02-20T08:10:22;27.80;57.90
56300;DHT22;42209;6.376;-10.782;2023-02-20T08:12:52;27.80;58.60
56300;DHT22;42209;6.376;-10.782;2023-02-20T08:15:21;27.80;57.50
56300;DHT22;42209;6.376;-10.782;2023-02-20T08:17:50;27.80;58.20
56300;DHT22;42209;6.376;-10.782;2023-02-20T08:20:19;27.80;58.60
56300;DHT22;42209;6.376;-10.782;2023-02-20T08:22:49;27.80;58.60
56300;DHT22;42209;6.376;-10.782;2023-02-20T08:25:17;27.80;58.70
56300;DHT22;42209;6.376;-10.782;2023-02-20T08:27:47;27.80;59.50
56300;DHT22;42209;6.376;-10.782;2023-02-20T08:30:23;27.80;61.00
56300;DHT22;42209;6.376;-10.782;2023-02-20T08:32:54;27.80;62.10
56300;DHT22;42209;6.376;-10.782;2023-02-20T08:35:25;27.90;61.40
56300;DHT22;42209;6.376;-10.782;2023-02-20T08:37:53;27.90;61.70
56300;DHT22;42209;6.376;-10.782;2023-02-20T08:40:21;27.90;61.60
56300;DHT22;42209;6.376;-10.782;2023-02-20T08:42:55;27.90;63.10
56300;DHT22;42209;6.376;-10.782;2023-02-20T08:45:23;27.90;64.90
56300;DHT22;42209;6.376;-10.782;2023-02-20T08:47:51;27.90;66.00
56300;DHT22;42209;6.376;-10.782;2023-02-20T08:50:23;27.90;66.80
56300;DHT22;42209;6.376;-10.782;2023-02-20T08:52:51;27.90;67.80
56300;DHT22;42209;6.376;-10.782;2023-02-20T08:55:19;27.80;67.40
56300;DHT22;42209;6.376;-10.782;2023-02-20T08:57:48;27.80;67.80
56300;DHT22;42209;6.376;-10.782;2023-02-20T09:00:19;27.90;67.50
56300;DHT22;42209;6.376;-10.782;2023-02-20T09:02:47;27.90;67.70
56300;DHT22;42209;6.376;-10.782;2023-02-20T09:05:16;27.90;68.10
56300;DHT22;42209;6.376;-10.782;2023-02-20T09:07:45;27.80;68.30
56300;DHT22;42209;6.376;-10.782;2023-02-20T09:10:13;27.90;68.10
56300;DHT22;42209;6.376;-10.782;2023-02-20T09:12:41;27.90;67.30
56300;DHT22;42209;6.376;-10.782;2023-02-20T09:15:09;27.90;66.70
56300;DHT22;42209;6.376;-10.782;2023-02-20T09:17:38;27.90;65.50
56300;DHT22;42209;6.376;-10.782;2023-02-20T09:20:08;27.90;64.50
56300;DHT22;42209;6.376;-10.782;2023-02-20T09:22:36;27.90;65.10
56300;DHT22;42209;6.376;-10.782;2023-02-20T09:25:05;27.80;64.10
56300;DHT22;42209;6.376;-10.782;2023-02-20T09:27:34;27.90;63.90
56300;DHT22;42209;6.376;-10.782;2023-02-20T09:30:02;27.90;64.00
56300;DHT22;42209;6.376;-10.782;2023-02-20T09:32:30;27.90;64.00
56300;DHT22;42209;6.376;-10.782;2023-02-20T09:34:58;27.90;63.50
56300;DHT22;42209;6.376;-10.782;2023-02-20T09:37:27;27.90;63.30
56300;DHT22;42209;6.376;-10.782;2023-02-20T09:39:55;27.80;63.10
56300;DHT22;42209;6.376;-10.782;2023-02-20T09:42:30;27.90;63.10
56300;DHT22;42209;6.376;-10.782;2023-02-20T09:53:25;27.80;61.20
56300;DHT22;42209;6.376;-10.782;2023-02-20T09:55:56;27.90;60.70
56300;DHT22;42209;6.376;-10.782;2023-02-20T09:58:44;27.90;60.40
56300;DHT22;42209;6.376;-10.782;2023-02-20T10:01:17;27.80;59.70
56300;DHT22;42209;6.376;-10.782;2023-02-20T10:04:02;27.80;60.00
56300;DHT22;42209;6.376;-10.782;2023-02-20T10:06:33;27.80;61.10
56300;DHT22;42209;6.376;-10.782;2023-02-20T10:09:03;27.90;62.10
56300;DHT22;42209;6.376;-10.782;2023-02-20T10:20:12;27.90;62.30
56300;DHT22;42209;6.376;-10.782;2023-02-20T10:23:22;27.90;62.60
56300;DHT22;42209;6.376;-10.782;2023-02-20T10:25:59;27.90;61.60
56300;DHT22;42209;6.376;-10.782;2023-02-20T10:28:29;27.90;60.90
56300;DHT22;42209;6.376;-10.782;2023-02-20T10:33:53;27.90;61.90
56300;DHT22;42209;6.376;-10.782;2023-02-20T10:36:33;27.90;61.30
56300;DHT22;42209;6.376;-10.782;2023-02-20T10:39:10;27.90;61.40
56300;DHT22;42209;6.376;-10.782;2023-02-20T10:41:58;27.90;61.40
56300;DHT22;42209;6.376;-10.782;2023-02-20T10:44:57;27.90;60.80
56300;DHT22;42209;6.376;-10.782;2023-02-20T10:47:48;27.90;59.70
56300;DHT22;42209;6.376;-10.782;2023-02-20T10:50:28;27.90;60.10
56300;DHT22;42209;6.376;-10.782;2023-02-20T10:58:43;27.90;58.60
56300;DHT22;42209;6.376;-10.782;2023-02-20T11:01:17;27.90;57.80
56300;DHT22;42209;6.376;-10.782;2023-02-20T11:06:20;27.90;57.90
56300;DHT22;42209;6.376;-10.782;2023-02-20T11:08:50;27.90;57.20
56300;DHT22;42209;6.376;-10.782;2023-02-20T11:11:45;27.90;56.50
56300;DHT22;42209;6.376;-10.782;2023-02-20T11:14:23;27.90;56.60
56300;DHT22;42209;6.376;-10.782;2023-02-20T11:17:15;27.90;56.50
56300;DHT22;42209;6.376;-10.782;2023-02-20T11:19:47;27.90;56.50
56300;DHT22;42209;6.376;-10.782;2023-02-20T11:22:18;27.90;56.40
56300;DHT22;42209;6.376;-10.782;2023-02-20T11:25:17;27.90;56.30
56300;DHT22;42209;6.376;-10.782;2023-02-20T11:27:51;27.90;56.30
56300;DHT22;42209;6.376;-10.782;2023-02-20T11:35:41;27.90;55.90
56300;DHT22;42209;6.376;-10.782;2023-02-20T11:38:21;27.90;56.50
56300;DHT22;42209;6.376;-10.782;2023-02-20T11:43:24;27.90;56.10
56300;DHT22;42209;6.376;-10.782;2023-02-20T11:46:14;27.90;55.90
56300;DHT22;42209;6.376;-10.782;2023-02-20T11:49:07;27.90;55.40
56300;DHT22;42209;6.376;-10.782;2023-02-20T11:51:40;27.90;55.60
56300;DHT22;42209;6.376;-10.782;2023-02-20T11:54:24;27.90;55.30
56300;DHT22;42209;6.376;-10.782;2023-02-20T11:59:39;27.90;55.20
56300;DHT22;42209;6.376;-10.782;2023-02-20T12:02:22;27.90;55.10
56300;DHT22;42209;6.376;-10.782;2023-02-20T12:05:09;28.00;55.00
56300;DHT22;42209;6.376;-10.782;2023-02-20T12:12:58;28.00;54.50
56300;DHT22;42209;6.376;-10.782;2023-02-20T12:15:27;28.00;54.60
56300;DHT22;42209;6.376;-10.782;2023-02-20T12:20:57;28.00;54.30
56300;DHT22;42209;6.376;-10.782;2023-02-20T12:26:31;28.00;54.20
56300;DHT22;42209;6.376;-10.782;2023-02-20T12:40:18;28.00;53.70
56300;DHT22;42209;6.376;-10.782;2023-02-20T12:45:25;28.00;53.50
56300;DHT22;42209;6.376;-10.782;2023-02-20T12:50:48;28.00;53.20
56300;DHT22;42209;6.376;-10.782;2023-02-20T13:01:36;28.00;52.70
56300;DHT22;42209;6.376;-10.782;2023-02-20T13:07:05;28.10;52.60
56300;DHT22;42209;6.376;-10.782;2023-02-20T13:09:43;28.00;52.40
56300;DHT22;42209;6.376;-10.782;2023-02-20T13:12:15;28.00;52.10
56300;DHT22;42209;6.376;-10.782;2023-02-20T13:17:43;28.00;52.00
56300;DHT22;42209;6.376;-10.782;2023-02-20T13:22:58;28.00;52.20
56300;DHT22;42209;6.376;-10.782;2023-02-20T13:25:50;28.10;52.00
56300;DHT22;42209;6.376;-10.782;2023-02-20T13:28:38;28.10;52.00
56300;DHT22;42209;6.376;-10.782;2023-02-20T13:31:16;28.10;51.90
56300;DHT22;42209;6.376;-10.782;2023-02-20T13:33:51;28.10;52.00
56300;DHT22;42209;6.376;-10.782;2023-02-20T13:36:43;28.10;51.90
56300;DHT22;42209;6.376;-10.782;2023-02-20T13:42:25;28.10;51.90
56300;DHT22;42209;6.376;-10.782;2023-02-20T13:44:54;28.10;51.70
56300;DHT22;42209;6.376;-10.782;2023-02-20T13:49:58;28.10;51.50
56300;DHT22;42209;6.376;-10.782;2023-02-20T13:57:51;28.10;51.60
56300;DHT22;42209;6.376;-10.782;2023-02-20T14:00:51;28.10;51.50
56300;DHT22;42209;6.376;-10.782;2023-02-20T14:03:26;28.10;51.40
56300;DHT22;42209;6.376;-10.782;2023-02-20T14:08:29;28.10;51.30
56300;DHT22;42209;6.376;-10.782;2023-02-20T14:11:09;28.20;51.20
56300;DHT22;42209;6.376;-10.782;2023-02-20T14:13:39;28.20;51.20
56300;DHT22;42209;6.376;-10.782;2023-02-20T14:16:32;28.10;51.10
56300;DHT22;42209;6.376;-10.782;2023-02-20T14:19:18;28.10;50.70
56300;DHT22;42209;6.376;-10.782;2023-02-20T14:21:48;28.10;50.60
56300;DHT22;42209;6.376;-10.782;2023-02-20T14:24:25;28.20;50.20
56300;DHT22;42209;6.376;-10.782;2023-02-20T14:26:55;28.20;50.30
56300;DHT22;42209;6.376;-10.782;2023-02-20T14:29:31;28.20;50.00
56300;DHT22;42209;6.376;-10.782;2023-02-20T14:32:01;28.20;49.90
56300;DHT22;42209;6.376;-10.782;2023-02-20T14:34:47;28.20;49.60
56300;DHT22;42209;6.376;-10.782;2023-02-20T14:40:27;28.30;49.50
56300;DHT22;42209;6.376;-10.782;2023-02-20T14:43:02;28.20;49.50
56300;DHT22;42209;6.376;-10.782;2023-02-20T14:45:30;28.20;49.40
56300;DHT22;42209;6.376;-10.782;2023-02-20T14:47:59;28.30;49.70
56300;DHT22;42209;6.376;-10.782;2023-02-20T14:50:33;28.30;49.70
56300;DHT22;42209;6.376;-10.782;2023-02-20T14:53:17;28.30;49.50
56300;DHT22;42209;6.376;-10.782;2023-02-20T14:55:49;28.30;49.50
56300;DHT22;42209;6.376;-10.782;2023-02-20T14:58:19;28.20;49.30
56300;DHT22;42209;6.376;-10.782;2023-02-20T15:00:48;28.30;49.20
56300;DHT22;42209;6.376;-10.782;2023-02-20T15:03:25;28.30;49.20
56300;DHT22;42209;6.376;-10.782;2023-02-20T15:06:05;28.30;48.90
56300;DHT22;42209;6.376;-10.782;2023-02-20T15:08:34;28.30;48.90
56300;DHT22;42209;6.376;-10.782;2023-02-20T15:11:14;28.30;48.60
56300;DHT22;42209;6.376;-10.782;2023-02-20T15:13:44;28.30;48.40
56300;DHT22;42209;6.376;-10.782;2023-02-20T15:16:25;28.30;48.40
56300;DHT22;42209;6.376;-10.782;2023-02-20T15:18:54;28.40;48.60
56300;DHT22;42209;6.376;-10.782;2023-02-20T15:21:40;28.40;48.60
56300;DHT22;42209;6.376;-10.782;2023-02-20T15:24:29;28.30;48.60
56300;DHT22;42209;6.376;-10.782;2023-02-20T15:27:17;28.40;48.60
56300;DHT22;42209;6.376;-10.782;2023-02-20T15:29:46;28.40;48.70
56300;DHT22;42209;6.376;-10.782;2023-02-20T15:32:23;28.40;48.60
56300;DHT22;42209;6.376;-10.782;2023-02-20T15:34:54;28.40;48.60
56300;DHT22;42209;6.376;-10.782;2023-02-20T15:37:24;28.40;48.60
56300;DHT22;42209;6.376;-10.782;2023-02-20T15:40:23;28.40;48.30
56300;DHT22;42209;6.376;-10.782;2023-02-20T15:42:52;28.40;48.60
56300;DHT22;42209;6.376;-10.782;2023-02-20T15:45:23;28.50;48.40
56300;DHT22;42209;6.376;-10.782;2023-02-20T15:47:52;28.50;48.40
56300;DHT22;42209;6.376;-10.782;2023-02-20T15:50:21;28.50;48.20
56300;DHT22;42209;6.376;-10.782;2023-02-20T15:52:50;28.50;48.00
56300;DHT22;42209;6.376;-10.782;2023-02-20T15:55:21;28.50;47.60
56300;DHT22;42209;6.376;-10.782;2023-02-20T15:57:53;28.50;47.90
56300;DHT22;42209;6.376;-10.782;2023-02-20T16:00:26;28.50;47.70
56300;DHT22;42209;6.376;-10.782;2023-02-20T16:02:55;28.50;47.50
56300;DHT22;42209;6.376;-10.782;2023-02-20T16:05:23;28.50;47.40
56300;DHT22;42209;6.376;-10.782;2023-02-20T16:07:52;28.50;47.40
56300;DHT22;42209;6.376;-10.782;2023-02-20T16:10:21;28.60;47.30
56300;DHT22;42209;6.376;-10.782;2023-02-20T16:12:54;28.60;47.00
56300;DHT22;42209;6.376;-10.782;2023-02-20T16:15:23;28.50;46.80
56300;DHT22;42209;6.376;-10.782;2023-02-20T16:17:52;28.60;46.50
56300;DHT22;42209;6.376;-10.782;2023-02-20T16:20:26;28.60;46.70
56300;DHT22;42209;6.376;-10.782;2023-02-20T16:22:55;28.60;46.40
56300;DHT22;42209;6.376;-10.782;2023-02-20T16:25:23;28.60;46.40
56300;DHT22;42209;6.376;-10.782;2023-02-20T16:27:53;28.60;46.30
56300;DHT22;42209;6.376;-10.782;2023-02-20T16:30:42;28.60;46.20
56300;DHT22;42209;6.376;-10.782;2023-02-20T16:33:19;28.60;46.20
56300;DHT22;42209;6.376;-10.782;2023-02-20T16:35:50;28.60;46.10
56300;DHT22;42209;6.376;-10.782;2023-02-20T16:38:21;28.60;45.70
56300;DHT22;42209;6.376;-10.782;2023-02-20T16:40:53;28.60;45.60
56300;DHT22;42209;6.376;-10.782;2023-02-20T16:43:21;28.60;45.50
56300;DHT22;42209;6.376;-10.782;2023-02-20T16:45:50;28.60;45.60
56300;DHT22;42209;6.376;-10.782;2023-02-20T16:48:19;28.60;45.40
56300;DHT22;42209;6.376;-10.782;2023-02-20T16:50:49;28.60;45.60
56300;DHT22;42209;6.376;-10.782;2023-02-20T16:53:18;28.60;45.50
56300;DHT22;42209;6.376;-10.782;2023-02-20T16:55:47;28.70;45.60
56300;DHT22;42209;6.376;-10.782;2023-02-20T16:58:15;28.70;45.40
56300;DHT22;42209;6.376;-10.782;2023-02-20T17:00:43;28.70;45.40
56300;DHT22;42209;6.376;-10.782;2023-02-20T17:03:24;28.70;45.10
56300;DHT22;42209;6.376;-10.782;2023-02-20T17:05:52;28.70;44.80
56300;DHT22;42209;6.376;-10.782;2023-02-20T17:08:24;28.70;44.70
56300;DHT22;42209;6.376;-10.782;2023-02-20T17:10:57;28.70;45.00
56300;DHT22;42209;6.376;-10.782;2023-02-20T17:13:25;28.70;44.80
56300;DHT22;42209;6.376;-10.782;2023-02-20T17:15:53;28.70;44.80
56300;DHT22;42209;6.376;-10.782;2023-02-20T17:18:21;28.70;45.00
56300;DHT22;42209;6.376;-10.782;2023-02-20T17:20:50;28.70;45.20
56300;DHT22;42209;6.376;-10.782;2023-02-20T17:23:19;28.70;45.10
56300;DHT22;42209;6.376;-10.782;2023-02-20T17:25:47;28.70;44.90
56300;DHT22;42209;6.376;-10.782;2023-02-20T17:28:18;28.70;45.10
56300;DHT22;42209;6.376;-10.782;2023-02-20T17:30:46;28.70;44.90
56300;DHT22;42209;6.376;-10.782;2023-02-20T17:33:14;28.70;44.70
56300;DHT22;42209;6.376;-10.782;2023-02-20T17:35:43;28.70;44.70
56300;DHT22;42209;6.376;-10.782;2023-02-20T17:38:11;28.70;44.40
56300;DHT22;42209;6.376;-10.782;2023-02-20T17:40:39;28.70;44.50
56300;DHT22;42209;6.376;-10.782;2023-02-20T17:43:07;28.70;44.30
56300;DHT22;42209;6.376;-10.782;2023-02-20T17:45:35;28.70;44.70
56300;DHT22;42209;6.376;-10.782;2023-02-20T17:48:04;28.70;43.80
56300;DHT22;42209;6.376;-10.782;2023-02-20T17:50:32;28.70;44.00
56300;DHT22;42209;6.376;-10.782;2023-02-20T17:53:00;28.70;44.30
56300;DHT22;42209;6.376;-10.782;2023-02-20T17:55:28;28.70;44.10
56300;DHT22;42209;6.376;-10.782;2023-02-20T17:58:00;28.70;44.00
56300;DHT22;42209;6.376;-10.782;2023-02-20T18:00:28;28.70;43.60
56300;DHT22;42209;6.376;-10.782;2023-02-20T18:02:56;28.70;43.90
56300;DHT22;42209;6.376;-10.782;2023-02-20T18:05:24;28.70;44.10
56300;DHT22;42209;6.376;-10.782;2023-02-20T18:07:53;28.70;43.80
56300;DHT22;42209;6.376;-10.782;2023-02-20T18:10:21;28.70;44.00
56300;DHT22;42209;6.376;-10.782;2023-02-20T18:12:49;28.70;44.20
56300;DHT22;42209;6.376;-10.782;2023-02-20T18:15:17;28.70;44.50
56300;DHT22;42209;6.376;-10.782;2023-02-20T18:17:46;28.70;44.50